Forward — NICB — position and weather

sailwx.info

Track history (hours):
 
Tides and Currents Weather Stations Pressure Air Temp Water Temp Dewpoint Dewpoint Depression Visibility Wind Speed Wind Dir Waves Ship Positions

Forward

Last reported at 2018-Jun-16 15:19 UTC. Time now 2018-Jun-25 15:20 UTC.
Position N 36°53' W 076°21'.
Warning: this ship's position is 9 days out of date.

Length 82 m; draft 4.3 m.

Type: Law enforcement. MMSI: 367261000.

Date/timePositionNaut miles runAvg speedWind from/ knotsBaromVisibWave heightAir tempDewpointWater temp
2018-Jun-16 15:19N 36°53' W 076°21'1 3.1
2018-Jun-16 15:00N 36°54' W 076°20'2 0.0
2018-Jun-14 19:13N 36°56' W 076°20'2 9.7
2018-Jun-14 19:00N 36°54' W 076°20'4 7.2
2018-Jun-14 18:30N 36°51' W 076°18'1 1.5
2018-Jun-14 18:00N 36°50' W 076°17'1 1.4
2018-Jun-14 17:31N 36°50' W 076°16'0 0.0
2018-Jun-14 16:58N 36°50' W 076°16'0 0.0
2018-Jun-14 16:26N 36°50' W 076°16'  
Track history (hours):
 
Tides and Currents Weather Stations Pressure Air Temp Water Temp Dewpoint Dewpoint Depression Visibility Wind Speed Wind Dir Waves Ship Positions

Forward

Last reported at 2018-Jun-16 15:19 UTC. Time now 2018-Jun-25 15:20 UTC.
Position N 36°53' W 076°21'.
Warning: this ship's position is 9 days out of date.

Length 82 m; draft 4.3 m.

Type: Law enforcement. MMSI: 367261000.

Date/timePositionNaut miles runAvg speedWind from/ knotsBaromVisibWave heightAir tempDewpointWater temp
2018-Jun-16 15:19N 36°53' W 076°21'1 3.1
2018-Jun-16 15:00N 36°54' W 076°20'2 0.0
2018-Jun-14 19:13N 36°56' W 076°20'2 9.7
2018-Jun-14 19:00N 36°54' W 076°20'4 7.2
2018-Jun-14 18:30N 36°51' W 076°18'1 1.5
2018-Jun-14 18:00N 36°50' W 076°17'1 1.4
2018-Jun-14 17:31N 36°50' W 076°16'0 0.0
2018-Jun-14 16:58N 36°50' W 076°16'0 0.0
2018-Jun-14 16:26N 36°50' W 076°16'  

Dump ship's entire track history